Aviation Digital Data Service (ADDS)

Output produced by METARs form (1049 UTC 17 January 2017)
found at http://aviationweather.gov/adds/metars/
 
KBPT 170538Z 1706/1806 16011G15KT P6SM BKN007 BKN020 OVC027 
     TEMPO 1706/1710 4SM BR SCT008 OVC017 
     FM171000 15008KT 4SM BR VCSH OVC005 
     TEMPO 1710/1714 2SM BR FEW009 OVC016 
     FM171500 16010KT 6SM BR VCSH OVC012 
     TEMPO 1715/1719 -SHRA OVC023